createdAt,value
2022-10-15T00:05:45.379Z,100.00
2022-10-15T00:15:47.434Z,100.00
2022-10-15T00:25:49.387Z,100.00
2022-10-15T00:35:59.567Z,100.00
2022-10-15T00:46:01.653Z,100.00
2022-10-15T00:56:04.713Z,100.00
2022-10-15T01:06:06.988Z,100.00
2022-10-15T01:16:08.936Z,100.00
2022-10-15T01:26:47.563Z,100.00
2022-10-15T01:37:04.236Z,100.00
2022-10-15T01:47:14.557Z,100.00
2022-10-15T01:57:19.405Z,100.00
2022-10-15T02:07:27.540Z,100.00
2022-10-15T02:17:41.919Z,100.00
2022-10-15T02:27:47.922Z,100.00
2022-10-15T02:37:53.652Z,100.00
2022-10-15T02:47:55.825Z,100.00
2022-10-15T02:57:59.160Z,100.00
2022-10-15T03:08:01.270Z,100.00
2022-10-15T03:18:05.332Z,100.00
2022-10-15T03:28:07.539Z,100.00
2022-10-15T03:38:12.414Z,100.00
2022-10-15T03:48:14.787Z,100.00
2022-10-15T03:58:16.974Z,100.00
2022-10-15T04:08:24.968Z,100.00
2022-10-15T04:18:27.666Z,100.00
2022-10-15T04:28:30.872Z,100.00
2022-10-15T04:38:32.985Z,100.00
2022-10-15T04:48:40.358Z,100.00
2022-10-15T04:58:47.658Z,100.00
2022-10-15T05:08:50.152Z,100.00
2022-10-15T05:19:00.207Z,100.00
2022-10-15T05:29:02.971Z,100.00
2022-10-15T05:39:10.482Z,100.00
2022-10-15T05:49:16.461Z,100.00
2022-10-15T05:59:40.547Z,100.00
2022-10-15T06:09:42.740Z,100.00
2022-10-15T06:19:45.084Z,100.00
2022-10-15T06:29:47.809Z,100.00
2022-10-15T06:39:49.752Z,100.00
2022-10-15T06:49:51.894Z,100.00
2022-10-15T06:59:54.590Z,100.00
2022-10-15T07:09:57.204Z,100.00
2022-10-15T07:20:02.871Z,100.00
2022-10-15T07:30:07.876Z,100.00
2022-10-15T07:40:10.445Z,100.00
2022-10-15T07:50:14.004Z,100.00
2022-10-15T08:00:16.460Z,100.00
2022-10-15T08:10:18.995Z,100.00
2022-10-15T08:20:21.224Z,100.00
2022-10-15T08:30:26.096Z,100.00
2022-10-15T08:40:29.907Z,100.00
2022-10-15T08:50:47.453Z,100.00
2022-10-15T09:00:56.757Z,100.00
2022-10-15T09:11:07.991Z,100.00
2022-10-15T09:21:11.809Z,100.00
2022-10-15T09:31:18.040Z,98.32
2022-10-15T09:42:14.309Z,94.92
2022-10-15T09:52:55.478Z,93.23
2022-10-15T10:03:14.441Z,92.09
2022-10-15T10:13:26.387Z,91.90
2022-10-15T10:23:39.738Z,89.50
2022-10-15T10:33:48.307Z,89.56
2022-10-15T10:43:55.740Z,89.21
2022-10-15T10:53:59.667Z,90.75
2022-10-15T11:04:02.493Z,91.43
2022-10-15T11:14:22.199Z,87.64
2022-10-15T11:25:06.142Z,82.42
2022-10-15T11:35:48.273Z,82.15
2022-10-15T11:46:09.599Z,81.70
2022-10-15T11:56:21.110Z,80.97
2022-10-15T12:06:36.298Z,81.53
2022-10-15T12:17:16.230Z,79.51
2022-10-15T12:27:24.806Z,79.26
2022-10-15T12:37:29.516Z,78.75
2022-10-15T12:48:03.788Z,77.52
2022-10-15T12:58:27.543Z,75.67
2022-10-15T13:08:32.044Z,75.18
2022-10-15T13:18:34.025Z,77.05
2022-10-15T13:28:39.049Z,78.74
2022-10-15T13:38:46.508Z,80.30
2022-10-15T13:48:49.331Z,82.78
2022-10-15T13:58:52.081Z,85.29
2022-10-15T14:08:57.202Z,87.77
2022-10-15T14:19:10.200Z,88.96
2022-10-15T14:29:27.680Z,91.65
2022-10-15T14:39:35.664Z,92.85
2022-10-15T14:49:40.624Z,92.86
2022-10-15T14:59:43.627Z,93.75
2022-10-15T15:09:50.170Z,94.38
2022-10-15T15:19:54.811Z,96.67
2022-10-15T15:29:57.946Z,98.46
2022-10-15T15:39:59.907Z,99.46
2022-10-15T15:50:01.850Z,100.00
2022-10-15T16:00:06.473Z,100.00
2022-10-15T16:10:13.586Z,100.00
2022-10-15T16:20:15.638Z,100.00
2022-10-15T16:30:20.643Z,100.00
2022-10-15T16:40:23.521Z,100.00
2022-10-15T16:50:25.640Z,100.00
2022-10-15T17:00:27.871Z,100.00
2022-10-15T17:10:29.993Z,100.00
2022-10-15T17:20:35.371Z,100.00
2022-10-15T17:30:38.270Z,100.00
2022-10-15T17:40:40.956Z,100.00
2022-10-15T17:50:45.387Z,100.00
2022-10-15T18:00:57.424Z,100.00
2022-10-15T18:10:59.987Z,100.00
2022-10-15T18:21:09.205Z,100.00
2022-10-15T18:31:13.694Z,100.00
2022-10-15T18:41:21.580Z,100.00
2022-10-15T18:51:27.827Z,100.00
2022-10-15T19:01:39.068Z,100.00
2022-10-15T19:11:45.309Z,100.00
2022-10-15T19:21:48.900Z,100.00
2022-10-15T19:31:52.746Z,100.00
2022-10-15T19:41:55.375Z,100.00
2022-10-15T19:51:57.781Z,100.00
2022-10-15T20:02:00.037Z,100.00
2022-10-15T20:12:02.699Z,100.00
2022-10-15T20:22:04.770Z,100.00
2022-10-15T20:32:16.929Z,100.00
2022-10-15T20:42:30.163Z,100.00
2022-10-15T20:52:34.163Z,100.00
2022-10-15T21:02:36.271Z,100.00
2022-10-15T21:12:38.967Z,100.00
2022-10-15T21:22:40.995Z,100.00
2022-10-15T21:32:43.302Z,100.00
2022-10-15T21:42:45.294Z,100.00
2022-10-15T21:52:48.219Z,100.00
2022-10-15T22:02:51.952Z,100.00
2022-10-15T22:12:54.058Z,100.00
2022-10-15T22:22:56.068Z,100.00
2022-10-15T22:32:58.186Z,100.00
2022-10-15T22:43:00.389Z,100.00
2022-10-15T22:53:02.565Z,100.00
2022-10-15T23:03:04.843Z,100.00
2022-10-15T23:13:07.226Z,100.00
2022-10-15T23:23:09.275Z,100.00
2022-10-15T23:33:11.435Z,100.00
2022-10-15T23:43:13.354Z,100.00
2022-10-15T23:53:15.382Z,100.00
